createdAt,value
2022-09-10T00:01:56.062Z,90.97
2022-09-10T00:04:22.955Z,91.68
2022-09-10T00:06:49.765Z,92.04
2022-09-10T00:09:16.645Z,91.48
2022-09-10T00:11:43.416Z,91.39
2022-09-10T00:14:20.684Z,91.58
2022-09-10T00:16:48.584Z,90.85
2022-09-10T00:19:16.810Z,91.46
2022-09-10T00:21:44.046Z,91.19
2022-09-10T00:24:11.511Z,90.61
2022-09-10T00:26:39.426Z,90.77
2022-09-10T00:29:09.725Z,90.16
2022-09-10T00:31:37.952Z,90.34
2022-09-10T00:34:05.386Z,91.18
2022-09-10T00:36:36.538Z,89.54
2022-09-10T00:39:16.851Z,89.37
2022-09-10T00:41:47.218Z,89.67
2022-09-10T00:44:38.888Z,89.38
2022-09-10T00:47:07.710Z,89.66
2022-09-10T00:49:42.703Z,89.94
2022-09-10T00:52:10.150Z,90.23
2022-09-10T00:54:39.150Z,90.01
2022-09-10T00:57:13.811Z,89.69
2022-09-10T00:59:46.851Z,89.81
2022-09-10T01:02:13.771Z,90.42
2022-09-10T01:04:41.831Z,90.57
2022-09-10T01:07:10.910Z,90.59
2022-09-10T01:09:39.090Z,90.40
2022-09-10T01:12:36.950Z,90.37
2022-09-10T01:15:14.922Z,89.34
2022-09-10T01:17:59.473Z,89.20
2022-09-10T01:20:41.226Z,89.06
2022-09-10T01:23:23.686Z,89.04
2022-09-10T01:26:05.935Z,88.96
2022-09-10T01:28:45.755Z,89.36
2022-09-10T01:31:31.566Z,88.51
2022-09-10T01:34:39.273Z,88.92
2022-09-10T01:37:13.025Z,88.53
2022-09-10T01:39:41.409Z,89.32
2022-09-10T01:42:08.404Z,89.58
2022-09-10T01:44:43.915Z,89.90
2022-09-10T01:47:16.576Z,89.42
2022-09-10T01:50:08.747Z,89.35
2022-09-10T01:53:00.946Z,89.26
2022-09-10T01:56:10.487Z,89.64
2022-09-10T01:58:44.130Z,91.30
2022-09-10T02:01:22.011Z,91.89
2022-09-10T02:03:55.209Z,91.76
2022-09-10T02:06:26.307Z,91.97
2022-09-10T02:08:55.299Z,92.44
2022-09-10T02:11:22.770Z,92.60
2022-09-10T02:13:52.907Z,92.45
2022-09-10T02:16:49.852Z,92.49
2022-09-10T02:19:18.508Z,92.58
2022-09-10T02:21:51.575Z,92.54
2022-09-10T02:24:18.481Z,92.43
2022-09-10T02:26:45.370Z,91.38
2022-09-10T02:29:15.133Z,92.41
2022-09-10T02:31:44.394Z,91.86
2022-09-10T02:34:13.502Z,92.19
2022-09-10T02:36:40.331Z,91.80
2022-09-10T02:39:07.072Z,90.95
2022-09-10T02:41:34.741Z,90.50
2022-09-10T02:44:03.466Z,91.64
2022-09-10T02:46:30.341Z,88.60
2022-09-10T02:48:57.523Z,89.21
2022-09-10T02:51:24.983Z,88.69
2022-09-10T02:53:52.263Z,86.93
2022-09-10T02:56:19.934Z,90.02
2022-09-10T02:58:46.778Z,89.58
2022-09-10T03:01:16.781Z,89.54
2022-09-10T03:03:52.267Z,87.76
2022-09-10T03:06:19.208Z,88.47
2022-09-10T03:08:46.297Z,89.21
2022-09-10T03:11:14.357Z,87.19
2022-09-10T03:13:41.207Z,86.99
2022-09-10T03:16:08.606Z,87.01
2022-09-10T03:18:35.618Z,87.32
2022-09-10T03:21:09.598Z,86.72
2022-09-10T03:23:37.566Z,86.35
2022-09-10T03:26:06.261Z,87.33
2022-09-10T03:28:33.857Z,86.78
2022-09-10T03:31:06.428Z,87.42
2022-09-10T03:33:38.429Z,86.76
2022-09-10T03:36:05.600Z,86.93
2022-09-10T03:38:33.440Z,87.15
2022-09-10T03:41:00.308Z,87.54
2022-09-10T03:43:27.162Z,86.83
2022-09-10T03:45:54.270Z,86.93
2022-09-10T03:48:21.991Z,87.12
2022-09-10T03:50:49.184Z,87.07
2022-09-10T03:53:18.673Z,87.15
2022-09-10T03:55:47.441Z,86.60
2022-09-10T03:58:17.191Z,87.07
2022-09-10T04:00:45.433Z,86.86
2022-09-10T04:03:12.884Z,86.85
2022-09-10T04:05:42.276Z,86.88
2022-09-10T04:08:10.254Z,86.92
2022-09-10T04:10:37.263Z,87.21
2022-09-10T04:13:04.134Z,87.24
2022-09-10T04:15:33.814Z,86.80
2022-09-10T04:18:05.299Z,87.19
2022-09-10T04:20:34.370Z,87.06
2022-09-10T04:23:06.696Z,87.09
2022-09-10T04:25:35.651Z,86.46
2022-09-10T04:28:03.428Z,86.83
2022-09-10T04:30:31.689Z,86.89
2022-09-10T04:33:00.336Z,85.97
2022-09-10T04:35:29.837Z,86.13
2022-09-10T04:37:57.939Z,86.30
2022-09-10T04:40:25.992Z,85.52
2022-09-10T04:42:53.139Z,85.01
2022-09-10T04:45:19.940Z,84.83
2022-09-10T04:47:46.866Z,84.82
2022-09-10T04:50:13.890Z,83.82
2022-09-10T04:53:00.881Z,83.91
2022-09-10T04:55:27.719Z,83.21
2022-09-10T04:57:54.601Z,83.79
2022-09-10T05:00:21.378Z,83.41
2022-09-10T05:02:48.894Z,83.17
2022-09-10T05:05:15.842Z,83.56
2022-09-10T05:07:42.903Z,81.63
2022-09-10T05:10:10.534Z,82.56
2022-09-10T05:12:38.351Z,82.33
2022-09-10T05:15:06.273Z,81.90
2022-09-10T05:17:34.314Z,81.66
2022-09-10T05:20:01.112Z,80.70
2022-09-10T05:22:35.021Z,81.00
2022-09-10T05:25:04.915Z,81.45
2022-09-10T05:27:32.463Z,81.54
2022-09-10T05:29:59.677Z,81.35
2022-09-10T05:32:26.511Z,81.42
2022-09-10T05:34:53.253Z,81.15
2022-09-10T05:37:20.257Z,80.81
2022-09-10T05:39:47.069Z,80.97
2022-09-10T05:42:15.856Z,80.50
2022-09-10T05:44:43.459Z,80.75
2022-09-10T05:47:10.587Z,80.62
2022-09-10T05:49:37.588Z,80.10
2022-09-10T05:52:05.154Z,79.32
2022-09-10T05:54:33.279Z,79.26
2022-09-10T05:57:00.507Z,79.23
2022-09-10T05:59:29.561Z,77.66
2022-09-10T06:01:56.426Z,77.11
2022-09-10T06:04:24.312Z,76.86
2022-09-10T06:06:51.039Z,77.29
2022-09-10T06:09:17.941Z,77.13
2022-09-10T06:11:54.612Z,76.08
2022-09-10T06:14:22.791Z,76.43
2022-09-10T06:16:49.639Z,76.48
2022-09-10T06:19:16.433Z,77.30
2022-09-10T06:21:43.461Z,76.57
2022-09-10T06:24:10.621Z,76.02
2022-09-10T06:26:41.176Z,75.55
2022-09-10T06:29:11.993Z,75.32
2022-09-10T06:31:40.823Z,74.25
2022-09-10T06:34:08.177Z,73.24
2022-09-10T06:36:35.027Z,73.59
2022-09-10T06:39:01.975Z,73.32
2022-09-10T06:41:30.823Z,72.94
2022-09-10T06:44:03.236Z,72.58
2022-09-10T06:47:16.032Z,71.22
2022-09-10T06:49:24.145Z,70.27
2022-09-10T06:51:51.776Z,69.99
2022-09-10T06:54:19.194Z,70.80
2022-09-10T06:56:48.270Z,69.71
2022-09-10T06:59:14.960Z,69.87
2022-09-10T07:01:45.020Z,70.80
2022-09-10T07:04:11.737Z,68.31
2022-09-10T07:06:39.367Z,68.67
2022-09-10T07:09:10.175Z,68.15
2022-09-10T07:11:45.572Z,67.42
2022-09-10T07:14:15.787Z,68.23
2022-09-10T07:16:42.811Z,65.89
2022-09-10T07:19:09.594Z,66.55
2022-09-10T07:21:43.351Z,66.97
2022-09-10T07:24:13.031Z,64.91
2022-09-10T07:26:42.870Z,64.86
2022-09-10T07:29:10.384Z,65.17
2022-09-10T07:31:38.781Z,64.10
2022-09-10T07:34:14.795Z,64.54
2022-09-10T07:36:41.611Z,64.17
2022-09-10T07:39:10.473Z,64.29
2022-09-10T07:41:40.282Z,64.72
2022-09-10T07:44:10.903Z,64.58
2022-09-10T07:46:41.449Z,63.77
2022-09-10T07:49:11.750Z,64.80
2022-09-10T07:51:40.823Z,63.75
2022-09-10T07:54:07.706Z,63.02
2022-09-10T07:56:41.856Z,63.64
2022-09-10T07:59:11.628Z,61.86
2022-09-10T08:01:46.511Z,61.86
2022-09-10T08:04:15.926Z,62.12
2022-09-10T08:06:43.260Z,60.89
2022-09-10T08:09:10.566Z,60.30
2022-09-10T08:11:45.747Z,61.25
2022-09-10T08:14:15.529Z,61.57
2022-09-10T08:16:47.250Z,61.87
2022-09-10T08:19:13.974Z,62.16
2022-09-10T08:21:41.231Z,62.98
2022-09-10T08:24:10.442Z,61.94
2022-09-10T08:26:38.650Z,61.97
2022-09-10T08:29:06.814Z,61.72
2022-09-10T08:31:33.739Z,61.76
2022-09-10T08:34:20.012Z,61.72
2022-09-10T08:36:53.196Z,62.00
2022-09-10T08:39:20.653Z,62.35
2022-09-10T08:41:55.197Z,61.57
2022-09-10T08:44:55.996Z,62.86
2022-09-10T08:47:43.096Z,63.48
2022-09-10T08:50:16.455Z,61.96
2022-09-10T08:52:43.765Z,61.57
2022-09-10T08:55:21.685Z,62.52
2022-09-10T08:57:49.376Z,61.46
2022-09-10T09:00:22.998Z,63.33
2022-09-10T09:03:01.640Z,61.57
2022-09-10T09:05:40.879Z,60.69
2022-09-10T09:08:13.496Z,61.23
2022-09-10T09:10:49.268Z,60.31
2022-09-10T09:13:48.220Z,60.32
2022-09-10T09:16:49.198Z,58.79
2022-09-10T09:19:37.380Z,58.18
2022-09-10T09:22:25.018Z,58.85
2022-09-10T09:25:06.560Z,57.15
2022-09-10T09:27:40.039Z,59.20
2022-09-10T09:30:17.296Z,60.58
2022-09-10T09:32:47.017Z,57.69
2022-09-10T09:35:32.987Z,58.95
2022-09-10T09:38:23.634Z,59.79
2022-09-10T09:40:59.299Z,61.30
2022-09-10T09:43:54.181Z,58.95
2022-09-10T09:46:22.963Z,56.89
2022-09-10T09:48:56.517Z,58.28
2022-09-10T09:51:24.912Z,56.72
2022-09-10T09:54:19.854Z,56.11
2022-09-10T09:56:54.004Z,54.89
2022-09-10T09:59:29.908Z,58.19
2022-09-10T10:02:10.847Z,57.04
2022-09-10T10:05:06.606Z,54.75
2022-09-10T10:07:35.907Z,55.41
2022-09-10T10:10:06.309Z,56.57
2022-09-10T10:12:34.501Z,55.49
2022-09-10T10:15:01.839Z,54.58
2022-09-10T10:17:37.573Z,54.26
2022-09-10T10:20:09.288Z,54.70
2022-09-10T10:22:38.412Z,54.79
2022-09-10T10:25:26.931Z,55.01
2022-09-10T10:40:13.216Z,55.55
2022-09-10T10:43:10.941Z,55.88
2022-09-10T10:45:45.343Z,56.09
2022-09-10T10:48:25.522Z,56.49
2022-09-10T10:51:23.057Z,55.41
2022-09-10T10:54:04.306Z,54.05
2022-09-10T10:56:37.728Z,53.95
2022-09-10T10:59:16.595Z,54.12
2022-09-10T11:02:29.658Z,53.34
2022-09-10T11:05:06.219Z,52.49
2022-09-10T11:07:42.980Z,54.66
2022-09-10T11:10:20.070Z,51.84
2022-09-10T11:12:55.608Z,52.39
2022-09-10T11:15:45.608Z,53.14
2022-09-10T11:18:30.357Z,52.96
2022-09-10T11:21:32.899Z,54.31
2022-09-10T11:24:28.739Z,52.28
2022-09-10T11:27:18.769Z,53.36
2022-09-10T11:30:05.206Z,53.21
2022-09-10T11:32:41.143Z,54.09
2022-09-10T11:35:14.131Z,53.90
2022-09-10T11:37:52.833Z,53.16
2022-09-10T11:40:37.704Z,52.84
2022-09-10T11:43:11.222Z,53.13
2022-09-10T11:45:59.981Z,53.34
2022-09-10T11:48:35.130Z,54.51
2022-09-10T11:51:08.316Z,53.15
2022-09-10T11:53:35.992Z,52.79
2022-09-10T11:56:24.607Z,53.43
2022-09-10T11:59:20.823Z,53.21
2022-09-10T12:02:19.988Z,53.05
2022-09-10T12:04:59.125Z,52.63
2022-09-10T12:07:51.626Z,53.92
2022-09-10T12:10:31.902Z,53.54
2022-09-10T12:12:59.176Z,54.61
2022-09-10T12:15:29.032Z,54.23
2022-09-10T12:18:03.429Z,55.02
2022-09-10T12:20:34.526Z,55.27
2022-09-10T12:23:01.968Z,54.91
2022-09-10T12:25:34.155Z,55.28
2022-09-10T12:28:05.299Z,56.14
2022-09-10T12:30:32.110Z,55.55
2022-09-10T12:33:21.649Z,54.75
2022-09-10T12:35:50.399Z,55.01
2022-09-10T12:38:44.908Z,55.42
2022-09-10T12:41:33.001Z,55.84
2022-09-10T12:44:01.799Z,55.73
2022-09-10T12:46:29.803Z,57.25
2022-09-10T12:48:56.567Z,56.40
2022-09-10T12:51:46.354Z,57.22
2022-09-10T12:54:37.672Z,56.83
2022-09-10T12:57:21.533Z,55.31
2022-09-10T13:00:03.521Z,55.76
2022-09-10T13:02:35.527Z,55.27
2022-09-10T13:05:17.314Z,51.74
2022-09-10T13:07:45.553Z,48.69
2022-09-10T13:10:25.203Z,49.73
2022-09-10T13:12:55.514Z,51.19
2022-09-10T13:15:34.404Z,49.92
2022-09-10T13:18:01.195Z,50.43
2022-09-10T13:20:31.877Z,51.91
2022-09-10T13:23:37.375Z,51.87
2022-09-10T13:26:28.961Z,51.18
2022-09-10T13:28:55.716Z,52.43
2022-09-10T13:31:29.960Z,51.92
2022-09-10T13:34:15.151Z,49.90
2022-09-10T13:37:05.189Z,51.68
2022-09-10T13:40:18.135Z,51.24
2022-09-10T13:43:03.189Z,51.85
2022-09-10T13:45:41.967Z,51.76
2022-09-10T13:48:16.673Z,52.67
2022-09-10T13:50:59.073Z,51.97
2022-09-10T13:53:28.869Z,52.67
2022-09-10T13:55:59.941Z,52.42
2022-09-10T13:58:31.693Z,51.87
2022-09-10T14:01:04.685Z,52.24
2022-09-10T14:03:34.664Z,51.97
2022-09-10T14:06:02.353Z,51.65
2022-09-10T14:08:33.900Z,51.87
2022-09-10T14:11:13.015Z,51.24
2022-09-10T14:14:12.445Z,52.46
2022-09-10T14:16:55.605Z,51.21
2022-09-10T14:19:22.542Z,51.46
2022-09-10T14:21:50.594Z,52.00
2022-09-10T14:24:48.944Z,52.21
2022-09-10T14:27:26.624Z,51.27
2022-09-10T14:30:15.998Z,51.53
2022-09-10T14:32:42.705Z,51.42
2022-09-10T14:35:42.088Z,51.59
2022-09-10T14:38:38.037Z,51.71
2022-09-10T14:41:18.295Z,52.59
2022-09-10T14:43:45.108Z,50.36
2022-09-10T14:46:33.881Z,49.88
2022-09-10T14:49:00.696Z,49.04
2022-09-10T14:51:27.863Z,49.93
2022-09-10T14:53:57.099Z,49.86
2022-09-10T14:56:39.185Z,51.83
2022-09-10T14:59:24.698Z,51.01
2022-09-10T15:01:51.865Z,51.79
2022-09-10T15:04:21.911Z,52.10
2022-09-10T15:06:48.650Z,52.24
2022-09-10T15:09:15.358Z,51.02
2022-09-10T15:11:57.392Z,50.40
2022-09-10T15:14:24.599Z,52.17
2022-09-10T15:16:51.811Z,50.99
2022-09-10T15:19:25.200Z,52.48
2022-09-10T15:21:52.074Z,52.31
2022-09-10T15:24:22.066Z,53.11
2022-09-10T15:26:49.807Z,53.97
2022-09-10T15:29:17.434Z,54.20
2022-09-10T15:31:44.536Z,53.78
2022-09-10T15:34:11.666Z,54.60
2022-09-10T15:36:40.265Z,54.62
2022-09-10T15:39:08.714Z,54.65
2022-09-10T15:41:35.485Z,54.98
2022-09-10T15:44:03.355Z,54.90
2022-09-10T15:46:30.119Z,55.23
2022-09-10T15:48:58.305Z,54.52
2022-09-10T15:51:25.149Z,54.70
2022-09-10T15:53:53.631Z,54.37
2022-09-10T15:56:22.178Z,54.12
2022-09-10T15:58:50.399Z,54.47
2022-09-10T16:01:18.085Z,54.75
2022-09-10T16:03:51.928Z,54.83
2022-09-10T16:06:19.801Z,54.80
2022-09-10T16:08:53.099Z,54.84
2022-09-10T16:11:20.593Z,54.88
2022-09-10T16:13:47.321Z,55.81
2022-09-10T16:16:18.533Z,55.17
2022-09-10T16:18:45.749Z,56.14
2022-09-10T16:21:26.989Z,56.00
2022-09-10T16:23:56.759Z,56.63
2022-09-10T16:26:26.171Z,56.86
2022-09-10T16:28:57.622Z,57.10
2022-09-10T16:31:27.443Z,57.32
2022-09-10T16:33:56.762Z,57.77
2022-09-10T16:36:23.675Z,58.11
2022-09-10T16:38:55.585Z,58.69
2022-09-10T16:41:23.456Z,58.89
2022-09-10T16:43:50.905Z,59.71
2022-09-10T16:46:18.497Z,59.80
2022-09-10T16:48:46.029Z,60.50
2022-09-10T16:51:17.557Z,60.12
2022-09-10T16:53:46.807Z,60.18
2022-09-10T16:56:16.245Z,59.23
2022-09-10T16:58:47.139Z,58.65
2022-09-10T17:01:15.080Z,59.38
2022-09-10T17:03:44.126Z,58.31
2022-09-10T17:06:22.541Z,57.88
2022-09-10T17:08:49.328Z,57.92
2022-09-10T17:11:17.979Z,57.75
2022-09-10T17:13:45.114Z,57.84
2022-09-10T17:16:21.016Z,57.74
2022-09-10T17:18:54.638Z,58.03
2022-09-10T17:21:21.401Z,58.00
2022-09-10T17:23:48.241Z,58.78
2022-09-10T17:26:15.030Z,59.51
2022-09-10T17:28:41.929Z,59.62
2022-09-10T17:31:08.840Z,60.20
2022-09-10T17:33:35.814Z,60.25
2022-09-10T17:36:04.164Z,60.76
2022-09-10T17:38:32.159Z,60.98
2022-09-10T17:41:02.146Z,61.32
2022-09-10T17:43:33.785Z,61.75
2022-09-10T17:46:08.138Z,61.78
2022-09-10T17:48:36.045Z,61.40
2022-09-10T17:51:03.693Z,61.84
2022-09-10T17:53:31.112Z,61.57
2022-09-10T17:56:06.125Z,61.71
2022-09-10T17:58:33.731Z,61.85
2022-09-10T18:01:03.466Z,61.98
2022-09-10T18:03:30.470Z,62.18
2022-09-10T18:06:03.398Z,62.20
2022-09-10T18:08:32.220Z,61.78
2022-09-10T18:11:08.567Z,62.15
2022-09-10T18:13:37.259Z,62.11
2022-09-10T18:16:06.618Z,62.16
2022-09-10T18:18:34.616Z,62.37
2022-09-10T18:21:34.710Z,62.04
2022-09-10T18:24:07.293Z,62.63
2022-09-10T18:26:36.803Z,62.96
2022-09-10T18:29:07.201Z,63.19
2022-09-10T18:31:37.892Z,63.29
2022-09-10T18:34:08.264Z,63.17
2022-09-10T18:36:35.269Z,63.23
2022-09-10T18:39:04.689Z,63.77
2022-09-10T18:41:34.855Z,63.61
2022-09-10T18:44:05.485Z,63.69
2022-09-10T18:46:33.364Z,64.38
2022-09-10T18:49:01.907Z,64.47
2022-09-10T18:51:30.486Z,64.83
2022-09-10T18:54:00.250Z,64.98
2022-09-10T18:56:31.170Z,65.51
2022-09-10T18:59:00.730Z,65.58
2022-09-10T19:01:30.016Z,65.36
2022-09-10T19:03:58.251Z,65.61
2022-09-10T19:06:31.801Z,65.21
2022-09-10T19:09:05.743Z,65.34
2022-09-10T19:11:36.740Z,65.61
2022-09-10T19:14:13.688Z,65.78
2022-09-10T19:16:40.772Z,65.86
2022-09-10T19:19:08.733Z,65.95
2022-09-10T19:21:35.744Z,65.92
2022-09-10T19:24:03.812Z,66.05
2022-09-10T19:26:34.959Z,66.36
2022-09-10T19:29:03.595Z,66.72
2022-09-10T19:31:33.376Z,66.14
2022-09-10T19:34:06.440Z,66.65
2022-09-10T19:36:34.785Z,66.70
2022-09-10T19:39:08.282Z,66.49
2022-09-10T19:41:36.915Z,66.73
2022-09-10T19:44:03.923Z,66.70
2022-09-10T19:46:31.082Z,66.98
2022-09-10T19:48:59.804Z,67.47
2022-09-10T19:51:29.726Z,67.12
2022-09-10T19:53:57.645Z,67.23
2022-09-10T19:56:28.345Z,67.55
2022-09-10T19:58:56.328Z,66.84
2022-09-10T20:01:25.990Z,67.30
2022-09-10T20:03:54.331Z,67.12
2022-09-10T20:06:23.837Z,67.73
2022-09-10T20:08:50.748Z,67.24
2022-09-10T20:11:21.577Z,67.70
2022-09-10T20:13:49.427Z,67.90
2022-09-10T20:16:17.716Z,68.29
2022-09-10T20:18:44.621Z,67.93
2022-09-10T20:21:24.479Z,68.08
2022-09-10T20:23:53.510Z,68.04
2022-09-10T20:26:31.660Z,68.54
2022-09-10T20:29:04.299Z,68.20
2022-09-10T20:31:33.505Z,68.68
2022-09-10T20:34:02.501Z,68.12
2022-09-10T20:36:30.696Z,68.58
2022-09-10T20:38:58.312Z,68.57
2022-09-10T20:41:26.184Z,68.78
2022-09-10T20:43:53.675Z,68.18
2022-09-10T20:46:22.338Z,68.72
2022-09-10T20:48:52.132Z,68.12
2022-09-10T20:51:19.942Z,68.42
2022-09-10T20:53:47.713Z,68.57
2022-09-10T20:56:17.922Z,68.60
2022-09-10T20:58:47.003Z,68.22
2022-09-10T21:01:22.480Z,68.39
2022-09-10T21:03:51.815Z,68.70
2022-09-10T21:06:20.120Z,68.00
2022-09-10T21:08:48.354Z,68.60
2022-09-10T21:11:18.663Z,68.34
2022-09-10T21:13:50.965Z,67.99
2022-09-10T21:16:20.969Z,68.14
2022-09-10T21:18:54.303Z,68.27
2022-09-10T21:21:23.786Z,68.48
2022-09-10T21:23:52.766Z,68.38
2022-09-10T21:26:21.510Z,68.76
2022-09-10T21:28:49.347Z,68.97
2022-09-10T21:31:16.183Z,68.46
2022-09-10T21:33:43.587Z,68.72
2022-09-10T21:36:12.827Z,69.04
2022-09-10T21:38:39.768Z,68.46
2022-09-10T21:41:11.924Z,68.86
2022-09-10T21:43:43.329Z,68.91
2022-09-10T21:46:11.537Z,69.14
2022-09-10T21:48:38.350Z,68.99
2022-09-10T21:51:07.512Z,69.56
2022-09-10T21:53:35.665Z,68.88
2022-09-10T21:56:04.561Z,69.21
2022-09-10T21:58:34.760Z,69.06
2022-09-10T22:01:02.370Z,69.03
2022-09-10T22:03:31.110Z,68.63
2022-09-10T22:06:07.356Z,68.78
2022-09-10T22:08:35.769Z,68.97
2022-09-10T22:11:08.643Z,68.48
2022-09-10T22:13:36.253Z,69.29
2022-09-10T22:16:03.134Z,68.61
2022-09-10T22:18:29.942Z,68.49
2022-09-10T22:20:58.263Z,69.03
2022-09-10T22:23:25.114Z,68.44
2022-09-10T22:25:51.875Z,68.45
2022-09-10T22:28:18.673Z,68.32
2022-09-10T22:30:45.403Z,68.14
2022-09-10T22:33:12.314Z,67.75
2022-09-10T22:35:39.081Z,67.98
2022-09-10T22:38:05.917Z,68.21
2022-09-10T22:40:33.389Z,67.88
2022-09-10T22:43:00.174Z,67.68
2022-09-10T22:45:26.928Z,67.96
2022-09-10T22:47:53.757Z,68.20
2022-09-10T22:50:20.536Z,68.21
2022-09-10T22:52:47.338Z,68.04
2022-09-10T22:55:14.120Z,67.74
2022-09-10T22:57:41.229Z,67.71
2022-09-10T23:00:09.349Z,68.08
2022-09-10T23:02:36.113Z,67.80
2022-09-10T23:05:02.977Z,67.71
2022-09-10T23:07:29.699Z,67.62
2022-09-10T23:09:56.526Z,67.67
2022-09-10T23:12:24.249Z,67.56
2022-09-10T23:14:51.068Z,67.25
2022-09-10T23:17:21.952Z,67.18
2022-09-10T23:19:49.531Z,66.88
2022-09-10T23:22:16.369Z,67.43
2022-09-10T23:24:43.180Z,67.65
2022-09-10T23:27:10.080Z,67.46
2022-09-10T23:29:36.820Z,68.29
2022-09-10T23:32:03.699Z,67.72
2022-09-10T23:34:30.484Z,67.90
2022-09-10T23:36:57.345Z,68.58
2022-09-10T23:39:24.713Z,68.82
2022-09-10T23:41:55.811Z,69.00
2022-09-10T23:44:23.223Z,69.20
2022-09-10T23:46:50.467Z,68.71
2022-09-10T23:49:17.287Z,69.17
2022-09-10T23:51:44.126Z,68.98
2022-09-10T23:54:11.732Z,68.69
2022-09-10T23:56:38.966Z,68.48
2022-09-10T23:59:05.895Z,69.02
